createdAt,value
2023-05-14T00:01:36.107Z,13.70
2023-05-14T00:04:03.864Z,13.70
2023-05-14T00:06:31.776Z,13.70
2023-05-14T00:08:58.522Z,13.60
2023-05-14T00:11:25.195Z,13.70
2023-05-14T00:13:51.996Z,13.70
2023-05-14T00:16:18.733Z,13.80
2023-05-14T00:18:45.584Z,13.80
2023-05-14T00:21:14.748Z,13.80
2023-05-14T00:23:41.387Z,13.80
2023-05-14T00:26:08.187Z,13.80
2023-05-14T00:28:38.235Z,13.80
2023-05-14T00:31:05.067Z,13.70
2023-05-14T00:33:32.386Z,13.60
2023-05-14T00:35:59.146Z,13.60
2023-05-14T00:38:27.684Z,13.60
2023-05-14T00:40:54.483Z,13.50
2023-05-14T00:43:22.479Z,13.60
2023-05-14T00:45:54.124Z,13.50
2023-05-14T00:48:23.729Z,13.50
2023-05-14T00:50:51.351Z,13.40
2023-05-14T00:53:21.537Z,13.50
2023-05-14T00:55:50.314Z,13.40
2023-05-14T00:58:18.408Z,13.40
2023-05-14T01:00:45.838Z,13.30
2023-05-14T01:03:13.083Z,13.30
2023-05-14T01:05:52.640Z,13.30
2023-05-14T01:08:49.824Z,13.30
2023-05-14T01:11:52.510Z,13.30
2023-05-14T01:14:32.908Z,13.20
2023-05-14T01:17:02.617Z,13.20
2023-05-14T01:19:42.018Z,13.20
2023-05-14T01:22:09.284Z,13.10
2023-05-14T01:24:36.179Z,13.00
2023-05-14T01:27:40.090Z,13.00
2023-05-14T01:30:19.272Z,13.00
2023-05-14T01:32:53.499Z,12.90
2023-05-14T01:35:24.941Z,12.90
2023-05-14T01:37:53.392Z,12.80
2023-05-14T01:40:20.983Z,12.80
2023-05-14T01:42:49.130Z,12.80
2023-05-14T01:45:16.248Z,12.70
2023-05-14T01:47:42.972Z,12.70
2023-05-14T01:50:10.500Z,12.70
2023-05-14T01:52:37.208Z,12.60
2023-05-14T01:55:05.119Z,12.50
2023-05-14T01:57:31.848Z,12.40
2023-05-14T01:59:58.562Z,12.30
2023-05-14T02:02:25.302Z,12.30
2023-05-14T02:04:52.468Z,12.20
2023-05-14T02:07:19.267Z,12.10
2023-05-14T02:09:45.950Z,12.10
2023-05-14T02:12:12.659Z,12.10
2023-05-14T02:14:39.398Z,12.10
2023-05-14T02:17:06.105Z,12.10
2023-05-14T02:19:32.754Z,12.00
2023-05-14T02:22:00.287Z,12.00
2023-05-14T02:24:27.630Z,11.90
2023-05-14T02:27:00.060Z,11.90
2023-05-14T02:29:27.455Z,11.80
2023-05-14T02:31:57.494Z,11.80
2023-05-14T02:34:25.386Z,11.80
2023-05-14T02:36:52.284Z,11.80
2023-05-14T02:39:18.910Z,11.70
2023-05-14T02:41:45.695Z,11.70
2023-05-14T02:44:12.597Z,11.70
2023-05-14T02:46:39.321Z,11.60
2023-05-14T02:49:06.010Z,11.60
2023-05-14T02:51:32.748Z,11.50
2023-05-14T02:54:00.854Z,11.40
2023-05-14T02:56:29.946Z,11.40
2023-05-14T02:58:59.549Z,11.40
2023-05-14T03:01:27.126Z,11.40
2023-05-14T03:03:54.431Z,11.30
2023-05-14T03:06:21.172Z,11.30
2023-05-14T03:08:48.087Z,11.20
2023-05-14T03:11:14.943Z,11.30
2023-05-14T03:13:41.587Z,11.20
2023-05-14T03:16:08.409Z,11.20
2023-05-14T03:18:36.592Z,10.90
2023-05-14T03:21:03.958Z,10.90
2023-05-14T03:23:31.980Z,10.80
2023-05-14T03:25:58.869Z,10.70
2023-05-14T03:28:26.238Z,10.70
2023-05-14T03:30:53.037Z,10.70
2023-05-14T03:33:19.917Z,10.70
2023-05-14T03:35:46.592Z,10.80
2023-05-14T03:38:13.361Z,10.70
2023-05-14T03:40:40.142Z,10.70
2023-05-14T03:43:06.790Z,10.70
2023-05-14T03:45:33.903Z,10.70
2023-05-14T03:48:00.782Z,10.60
2023-05-14T03:50:27.638Z,10.60
2023-05-14T03:52:54.980Z,10.60
2023-05-14T03:55:21.939Z,10.60
2023-05-14T03:57:49.117Z,10.60
2023-05-14T04:00:18.209Z,10.50
2023-05-14T04:02:45.196Z,10.50
2023-05-14T04:05:12.045Z,10.50
2023-05-14T04:07:38.702Z,10.60
2023-05-14T04:10:06.294Z,10.60
2023-05-14T04:12:35.283Z,10.50
2023-05-14T04:15:03.227Z,10.50
2023-05-14T04:17:29.931Z,10.50
2023-05-14T04:19:56.831Z,10.60
2023-05-14T04:22:24.279Z,10.60
2023-05-14T04:24:51.646Z,10.60
2023-05-14T04:27:22.085Z,10.70
2023-05-14T04:29:50.379Z,10.80
2023-05-14T04:32:18.067Z,10.90
2023-05-14T04:34:44.868Z,10.90
2023-05-14T04:37:11.574Z,11.00
2023-05-14T04:39:38.754Z,11.20
2023-05-14T04:42:08.169Z,11.20
2023-05-14T04:44:37.939Z,11.20
2023-05-14T04:47:04.912Z,11.20
2023-05-14T04:49:31.869Z,11.20
2023-05-14T04:52:01.009Z,11.20
2023-05-14T04:54:27.707Z,11.20
2023-05-14T04:56:55.898Z,11.20
2023-05-14T04:59:22.776Z,11.30
2023-05-14T05:01:49.901Z,11.40
2023-05-14T05:04:16.699Z,11.40
2023-05-14T05:06:43.481Z,11.50
2023-05-14T05:09:12.084Z,11.60
2023-05-14T05:11:41.337Z,11.60
2023-05-14T05:14:08.072Z,11.60
2023-05-14T05:16:35.242Z,11.70
2023-05-14T05:19:02.181Z,11.70
2023-05-14T05:21:29.134Z,11.70
2023-05-14T05:23:55.914Z,11.80
2023-05-14T05:26:24.866Z,11.90
2023-05-14T05:28:51.636Z,11.90
2023-05-14T05:31:19.905Z,12.00
2023-05-14T05:33:46.910Z,12.10
2023-05-14T05:36:13.773Z,12.30
2023-05-14T05:38:40.434Z,12.30
2023-05-14T05:41:07.538Z,12.40
2023-05-14T05:43:36.732Z,12.50
2023-05-14T05:46:03.447Z,12.60
2023-05-14T05:48:30.164Z,12.60
2023-05-14T05:50:57.618Z,12.70
2023-05-14T05:53:24.538Z,12.80
2023-05-14T05:55:54.351Z,13.00
2023-05-14T05:58:21.131Z,13.20
2023-05-14T06:00:48.067Z,13.50
2023-05-14T06:03:17.139Z,13.90
2023-05-14T06:05:44.022Z,14.20
2023-05-14T06:08:10.738Z,14.60
2023-05-14T06:10:37.520Z,14.80
2023-05-14T06:13:06.435Z,14.80
2023-05-14T06:15:33.119Z,14.80
2023-05-14T06:17:59.843Z,15.20
2023-05-14T06:20:26.790Z,15.40
2023-05-14T06:22:53.616Z,15.40
2023-05-14T06:25:20.369Z,15.40
2023-05-14T06:27:47.202Z,15.40
2023-05-14T06:30:14.593Z,15.30
2023-05-14T06:32:43.827Z,15.30
2023-05-14T06:35:10.688Z,15.50
2023-05-14T06:37:37.450Z,15.30
2023-05-14T06:40:04.961Z,15.30
2023-05-14T06:42:31.659Z,15.30
2023-05-14T06:44:58.624Z,15.40
2023-05-14T06:47:25.500Z,15.30
2023-05-14T06:49:52.242Z,15.60
2023-05-14T06:52:18.898Z,15.50
2023-05-14T06:54:45.849Z,15.50
2023-05-14T06:57:12.553Z,15.60
2023-05-14T06:59:39.255Z,15.70
2023-05-14T07:02:05.944Z,15.90
2023-05-14T07:04:32.855Z,16.00
2023-05-14T07:06:59.671Z,16.10
2023-05-14T07:09:26.426Z,15.90
2023-05-14T07:11:53.094Z,15.90
2023-05-14T07:14:19.933Z,16.10
2023-05-14T07:16:47.028Z,15.90
2023-05-14T07:19:14.083Z,16.00
2023-05-14T07:21:42.342Z,16.10
2023-05-14T07:24:09.084Z,16.20
2023-05-14T07:26:37.578Z,16.30
2023-05-14T07:29:04.529Z,16.40
2023-05-14T07:31:31.763Z,16.50
2023-05-14T07:33:58.491Z,16.60
2023-05-14T07:36:25.248Z,16.80
2023-05-14T07:38:51.966Z,16.70
2023-05-14T07:41:18.588Z,16.80
2023-05-14T07:43:45.318Z,16.90
2023-05-14T07:46:12.271Z,17.10
2023-05-14T07:48:39.161Z,17.20
2023-05-14T07:51:06.003Z,17.00
2023-05-14T07:53:32.807Z,16.80
2023-05-14T07:56:00.126Z,16.80
2023-05-14T07:58:28.795Z,16.80
2023-05-14T08:00:56.609Z,17.00
2023-05-14T08:03:26.201Z,17.30
2023-05-14T08:05:56.354Z,17.50
2023-05-14T08:08:23.215Z,17.60
2023-05-14T08:10:50.770Z,17.60
2023-05-14T08:13:17.539Z,17.50
2023-05-14T08:15:44.326Z,17.50
2023-05-14T08:18:11.013Z,17.60
2023-05-14T08:20:37.806Z,17.70
2023-05-14T08:23:04.545Z,17.80
2023-05-14T08:25:31.373Z,18.00
2023-05-14T08:27:59.668Z,18.20
2023-05-14T08:30:27.107Z,18.40
2023-05-14T08:32:54.003Z,18.60
2023-05-14T08:35:20.796Z,18.80
2023-05-14T08:37:47.574Z,18.60
2023-05-14T08:40:19.130Z,18.70
2023-05-14T08:42:47.002Z,18.40
2023-05-14T08:45:28.260Z,18.40
2023-05-14T08:47:59.074Z,18.60
2023-05-14T08:50:27.996Z,18.80
2023-05-14T08:52:54.980Z,18.90
2023-05-14T08:55:26.128Z,19.20
2023-05-14T08:57:54.215Z,19.40
2023-05-14T09:00:20.982Z,19.60
2023-05-14T09:02:48.343Z,19.50
2023-05-14T09:05:15.150Z,19.60
2023-05-14T09:07:41.954Z,19.10
2023-05-14T09:10:10.057Z,19.00
2023-05-14T09:12:36.735Z,18.80
2023-05-14T09:15:04.723Z,18.60
2023-05-14T09:17:31.866Z,18.70
2023-05-14T09:19:58.639Z,18.90
2023-05-14T09:22:25.396Z,18.90
2023-05-14T09:25:07.432Z,19.10
2023-05-14T09:27:37.146Z,19.40
2023-05-14T09:30:11.688Z,19.80
2023-05-14T09:32:40.245Z,20.00
2023-05-14T09:35:17.024Z,20.40
2023-05-14T09:37:46.179Z,20.80
2023-05-14T09:40:13.643Z,20.80
2023-05-14T09:42:41.248Z,20.50
2023-05-14T09:45:09.542Z,20.40
2023-05-14T09:47:39.576Z,20.30
2023-05-14T09:50:07.356Z,20.30
2023-05-14T09:52:34.548Z,20.30
2023-05-14T09:55:03.032Z,20.30
2023-05-14T09:57:29.966Z,20.30
2023-05-14T09:59:56.644Z,20.40
2023-05-14T10:02:33.806Z,20.20
2023-05-14T10:05:03.730Z,19.90
2023-05-14T10:07:46.342Z,19.90
2023-05-14T10:10:16.803Z,20.00
2023-05-14T10:12:51.575Z,20.10
2023-05-14T10:15:22.867Z,20.10
2023-05-14T10:17:55.662Z,20.30
2023-05-14T10:20:23.659Z,20.30
2023-05-14T10:22:51.177Z,20.30
2023-05-14T10:25:18.379Z,20.40
2023-05-14T10:27:46.391Z,20.50
2023-05-14T10:30:13.600Z,20.30
2023-05-14T10:32:41.932Z,20.50
2023-05-14T10:35:25.307Z,20.90
2023-05-14T10:37:52.040Z,20.80
2023-05-14T10:40:19.313Z,20.50
2023-05-14T10:42:46.948Z,20.70
2023-05-14T10:45:14.874Z,20.60
2023-05-14T10:47:46.959Z,20.60
2023-05-14T10:50:17.575Z,20.00
2023-05-14T10:52:48.260Z,19.70
2023-05-14T10:55:17.002Z,19.50
2023-05-14T10:57:45.601Z,19.30
2023-05-14T11:00:13.978Z,19.70
2023-05-14T11:02:43.164Z,19.80
2023-05-14T11:05:16.890Z,19.50
2023-05-14T11:07:49.186Z,19.30
2023-05-14T11:10:18.246Z,19.00
2023-05-14T11:12:49.858Z,19.20
2023-05-14T11:15:18.816Z,19.40
2023-05-14T11:17:47.712Z,19.40
2023-05-14T11:20:15.016Z,19.30
2023-05-14T11:22:43.380Z,19.30
2023-05-14T11:25:11.305Z,18.90
2023-05-14T11:27:39.278Z,18.90
2023-05-14T11:30:12.805Z,18.70
2023-05-14T11:32:40.529Z,18.70
2023-05-14T11:35:07.684Z,18.80
2023-05-14T11:37:35.653Z,18.80
2023-05-14T11:40:02.549Z,18.80
2023-05-14T11:42:29.210Z,18.80
2023-05-14T11:44:55.922Z,18.90
2023-05-14T11:47:22.969Z,19.00
2023-05-14T11:49:49.915Z,19.10
2023-05-14T11:52:19.347Z,19.00
2023-05-14T11:54:46.361Z,19.20
2023-05-14T11:57:18.699Z,19.20
2023-05-14T11:59:48.568Z,19.20
2023-05-14T12:02:18.729Z,19.20
2023-05-14T12:04:51.283Z,19.00
2023-05-14T12:07:23.567Z,19.10
2023-05-14T12:09:57.890Z,19.30
2023-05-14T12:12:24.718Z,19.40
2023-05-14T12:14:52.574Z,19.40
2023-05-14T12:17:23.105Z,19.40
2023-05-14T12:19:51.742Z,19.50
2023-05-14T12:22:23.480Z,19.70
2023-05-14T12:24:59.282Z,19.80
2023-05-14T12:27:28.128Z,19.70
2023-05-14T12:30:16.799Z,19.80
2023-05-14T12:32:48.887Z,20.00
2023-05-14T12:35:15.833Z,20.20
2023-05-14T12:37:42.915Z,20.20
2023-05-14T12:40:10.190Z,20.30
2023-05-14T12:42:37.437Z,20.70
2023-05-14T12:45:07.282Z,20.70
2023-05-14T12:47:34.881Z,20.60
2023-05-14T12:50:01.922Z,20.60
2023-05-14T12:52:37.817Z,20.60
2023-05-14T12:55:07.157Z,20.60
2023-05-14T12:57:35.292Z,20.70
2023-05-14T13:00:09.899Z,20.40
2023-05-14T13:02:42.996Z,20.30
2023-05-14T13:05:10.892Z,20.80
2023-05-14T13:07:37.934Z,20.50
2023-05-14T13:10:08.243Z,20.50
2023-05-14T13:12:36.236Z,20.60
2023-05-14T13:15:04.358Z,20.70
2023-05-14T13:17:31.286Z,20.50
2023-05-14T13:19:58.243Z,20.30
2023-05-14T13:22:28.294Z,20.30
2023-05-14T13:24:54.941Z,20.10
2023-05-14T13:27:21.702Z,20.40
2023-05-14T13:29:50.758Z,20.10
2023-05-14T13:32:17.459Z,20.20
2023-05-14T13:34:44.228Z,20.50
2023-05-14T13:37:11.200Z,20.20
2023-05-14T13:39:37.859Z,20.40
2023-05-14T13:42:05.585Z,20.50
2023-05-14T13:44:32.301Z,20.20
2023-05-14T13:46:59.069Z,20.20
2023-05-14T13:49:25.878Z,20.20
2023-05-14T13:51:53.002Z,20.40
2023-05-14T13:54:19.662Z,20.50
2023-05-14T13:56:46.356Z,20.50
2023-05-14T13:59:13.237Z,20.90
2023-05-14T14:01:40.123Z,21.20
2023-05-14T14:04:06.852Z,21.20
2023-05-14T14:06:33.680Z,20.90
2023-05-14T14:09:04.676Z,20.70
2023-05-14T14:11:31.399Z,20.70
2023-05-14T14:13:58.530Z,21.00
2023-05-14T14:16:25.218Z,21.30
2023-05-14T14:18:52.023Z,21.60
2023-05-14T14:21:21.853Z,22.00
2023-05-14T14:23:51.276Z,22.40
2023-05-14T14:26:20.433Z,22.40
2023-05-14T14:28:47.486Z,22.50
2023-05-14T14:31:15.119Z,22.90
2023-05-14T14:33:41.868Z,23.90
2023-05-14T14:36:10.625Z,23.40
2023-05-14T14:38:39.045Z,23.30
2023-05-14T14:41:10.018Z,23.20
2023-05-14T14:43:41.101Z,22.60
2023-05-14T14:46:10.992Z,22.60
2023-05-14T14:48:38.407Z,24.50
2023-05-14T14:51:08.334Z,26.10
2023-05-14T14:53:35.990Z,27.40
2023-05-14T14:56:02.852Z,28.20
2023-05-14T14:58:29.666Z,28.40
2023-05-14T15:00:57.768Z,28.80
2023-05-14T15:03:25.460Z,28.30
2023-05-14T15:05:53.558Z,28.20
2023-05-14T15:08:29.302Z,28.90
2023-05-14T15:10:59.280Z,28.60
2023-05-14T15:13:26.922Z,27.70
2023-05-14T15:15:53.640Z,26.40
2023-05-14T15:18:20.562Z,24.60
2023-05-14T15:20:50.586Z,24.30
2023-05-14T15:23:17.359Z,24.70
2023-05-14T15:25:44.654Z,25.70
2023-05-14T15:28:11.433Z,26.40
2023-05-14T15:30:38.221Z,27.60
2023-05-14T15:33:07.422Z,28.50
2023-05-14T15:35:34.114Z,29.60
2023-05-14T15:38:00.790Z,30.80
2023-05-14T15:40:27.915Z,31.40
2023-05-14T15:42:56.840Z,31.90
2023-05-14T15:45:23.742Z,32.30
2023-05-14T15:47:50.733Z,32.30
2023-05-14T15:50:17.586Z,32.40
2023-05-14T15:52:44.323Z,31.10
2023-05-14T15:55:11.616Z,29.30
2023-05-14T15:57:38.345Z,27.20
2023-05-14T16:00:10.577Z,25.80
2023-05-14T16:02:38.579Z,25.00
2023-05-14T16:05:07.333Z,24.20
2023-05-14T16:07:34.193Z,24.20
2023-05-14T16:10:00.949Z,24.00
2023-05-14T16:12:27.654Z,24.00
2023-05-14T16:14:54.848Z,23.40
2023-05-14T16:17:21.574Z,22.90
2023-05-14T16:19:48.287Z,22.30
2023-05-14T16:22:15.072Z,22.20
2023-05-14T16:24:41.756Z,22.00
2023-05-14T16:27:08.566Z,21.70
2023-05-14T16:29:35.405Z,21.50
2023-05-14T16:32:05.360Z,21.30
2023-05-14T16:34:32.061Z,21.20
2023-05-14T16:36:59.583Z,21.00
2023-05-14T16:39:26.479Z,21.00
2023-05-14T16:41:53.105Z,21.00
2023-05-14T16:44:19.970Z,21.00
2023-05-14T16:46:46.815Z,20.90
2023-05-14T16:49:14.050Z,20.90
2023-05-14T16:51:43.072Z,21.10
2023-05-14T16:54:10.016Z,21.20
2023-05-14T16:56:36.973Z,21.30
2023-05-14T16:59:03.727Z,21.40
2023-05-14T17:01:32.818Z,21.40
2023-05-14T17:03:59.626Z,21.40
2023-05-14T17:06:26.385Z,21.10
2023-05-14T17:08:53.347Z,21.10
2023-05-14T17:11:25.248Z,20.90
2023-05-14T17:13:51.947Z,20.80
2023-05-14T17:16:19.609Z,20.80
2023-05-14T17:18:46.902Z,20.60
2023-05-14T17:21:13.705Z,20.40
2023-05-14T17:23:42.273Z,20.30
2023-05-14T17:26:09.134Z,20.20
2023-05-14T17:28:38.316Z,20.10
2023-05-14T17:31:05.121Z,19.90
2023-05-14T17:33:31.888Z,19.70
2023-05-14T17:36:00.807Z,19.60
2023-05-14T17:38:27.651Z,19.50
2023-05-14T17:40:54.650Z,19.50
2023-05-14T17:43:24.689Z,19.50
2023-05-14T17:45:54.410Z,19.50
2023-05-14T17:48:22.793Z,19.40
2023-05-14T17:50:51.164Z,19.50
2023-05-14T17:53:18.023Z,19.40
2023-05-14T17:55:47.809Z,19.50
2023-05-14T17:58:15.867Z,19.50
2023-05-14T18:00:43.656Z,19.40
2023-05-14T18:03:10.709Z,19.30
2023-05-14T18:05:37.594Z,19.30
2023-05-14T18:08:04.457Z,19.10
2023-05-14T18:10:31.173Z,19.00
2023-05-14T18:12:57.857Z,18.80
2023-05-14T18:15:25.780Z,18.70
2023-05-14T18:17:53.059Z,18.50
2023-05-14T18:20:20.006Z,18.40
2023-05-14T18:22:52.347Z,18.40
2023-05-14T18:25:21.797Z,18.30
2023-05-14T18:27:51.947Z,18.10
2023-05-14T18:30:18.660Z,17.90
2023-05-14T18:32:45.534Z,17.70
2023-05-14T18:35:13.677Z,17.50
2023-05-14T18:37:40.735Z,17.50
2023-05-14T18:40:08.673Z,17.40
2023-05-14T18:42:35.492Z,17.30
2023-05-14T18:45:02.514Z,17.30
2023-05-14T18:47:29.696Z,17.20
2023-05-14T18:49:58.926Z,17.10
2023-05-14T18:52:26.376Z,16.90
2023-05-14T18:54:54.538Z,16.80
2023-05-14T18:57:21.634Z,16.60
2023-05-14T18:59:48.784Z,16.30
2023-05-14T19:02:18.509Z,16.20
2023-05-14T19:04:52.259Z,16.10
2023-05-14T19:07:20.562Z,15.90
2023-05-14T19:09:48.086Z,15.70
2023-05-14T19:12:15.927Z,15.60
2023-05-14T19:14:42.573Z,15.50
2023-05-14T19:17:09.804Z,15.50
2023-05-14T19:19:37.165Z,15.30
2023-05-14T19:22:03.878Z,15.40
2023-05-14T19:24:30.718Z,15.30
2023-05-14T19:26:57.530Z,15.20
2023-05-14T19:29:24.856Z,15.10
2023-05-14T19:31:54.680Z,15.10
2023-05-14T19:34:21.535Z,15.20
2023-05-14T19:36:48.555Z,15.30
2023-05-14T19:39:15.242Z,15.40
2023-05-14T19:41:42.055Z,15.60
2023-05-14T19:44:08.843Z,15.60
2023-05-14T19:46:35.904Z,15.70
2023-05-14T19:49:02.728Z,15.70
2023-05-14T19:51:29.610Z,15.70
2023-05-14T19:53:56.365Z,15.70
2023-05-14T19:56:24.763Z,15.70
2023-05-14T19:58:53.307Z,15.70
2023-05-14T20:01:20.960Z,15.70
2023-05-14T20:03:48.049Z,15.70
2023-05-14T20:06:14.834Z,15.70
2023-05-14T20:08:41.554Z,15.70
2023-05-14T20:11:08.253Z,15.60
2023-05-14T20:13:36.419Z,15.60
2023-05-14T20:16:03.319Z,15.50
2023-05-14T20:18:30.051Z,15.50
2023-05-14T20:20:56.900Z,15.50
2023-05-14T20:23:26.005Z,15.50
2023-05-14T20:25:53.005Z,15.50
2023-05-14T20:28:19.613Z,15.50
2023-05-14T20:30:47.472Z,15.40
2023-05-14T20:33:15.085Z,15.40
2023-05-14T20:35:43.784Z,15.40
2023-05-14T20:38:12.604Z,15.40
2023-05-14T20:40:42.075Z,15.40
2023-05-14T20:43:09.001Z,15.40
2023-05-14T20:45:36.184Z,15.40
2023-05-14T20:48:06.264Z,15.30
2023-05-14T20:50:33.071Z,15.30
2023-05-14T20:52:59.778Z,15.30
2023-05-14T20:55:26.732Z,15.20
2023-05-14T20:57:53.788Z,15.10
2023-05-14T21:00:20.708Z,15.10
2023-05-14T21:02:48.967Z,15.10
2023-05-14T21:05:16.738Z,15.20
2023-05-14T21:07:43.628Z,15.10
2023-05-14T21:10:10.750Z,15.10
2023-05-14T21:12:37.514Z,15.00
2023-05-14T21:15:04.662Z,15.00
2023-05-14T21:17:31.710Z,14.90
2023-05-14T21:19:58.428Z,14.90
2023-05-14T21:22:25.361Z,14.90
2023-05-14T21:24:52.031Z,14.90
2023-05-14T21:27:18.982Z,14.90
2023-05-14T21:29:46.577Z,14.90
2023-05-14T21:32:13.906Z,14.80
2023-05-14T21:34:41.193Z,14.80
2023-05-14T21:37:07.945Z,14.80
2023-05-14T21:39:34.882Z,14.80
2023-05-14T21:42:01.543Z,14.60
2023-05-14T21:44:28.193Z,14.50
2023-05-14T21:46:55.074Z,14.50
2023-05-14T21:49:21.935Z,14.40
2023-05-14T21:51:54.376Z,14.30
2023-05-14T21:54:21.224Z,14.30
2023-05-14T21:56:48.290Z,14.20
2023-05-14T21:59:17.783Z,14.30
2023-05-14T22:04:14.279Z,14.40
2023-05-14T22:06:41.260Z,14.30
2023-05-14T22:09:11.040Z,14.20
2023-05-14T22:11:37.788Z,14.10
2023-05-14T22:14:04.469Z,14.00
2023-05-14T22:16:31.889Z,14.00
2023-05-14T22:18:58.566Z,14.00
2023-05-14T22:21:25.275Z,14.00
2023-05-14T22:23:51.981Z,13.90
2023-05-14T22:26:18.785Z,13.80
2023-05-14T22:28:46.127Z,13.80
2023-05-14T22:31:12.833Z,13.80
2023-05-14T22:33:39.519Z,13.80
2023-05-14T22:36:07.000Z,13.70
2023-05-14T22:38:34.300Z,13.70
2023-05-14T22:41:01.008Z,13.50
2023-05-14T22:43:27.807Z,13.40
2023-05-14T22:45:54.784Z,13.40
2023-05-14T22:48:21.421Z,13.30
2023-05-14T22:50:48.067Z,13.30
2023-05-14T22:53:18.083Z,13.30
2023-05-14T22:55:44.868Z,13.30
2023-05-14T22:58:11.576Z,13.40
2023-05-14T23:00:38.303Z,13.30
2023-05-14T23:03:05.009Z,13.30
2023-05-14T23:05:31.730Z,13.30
2023-05-14T23:07:58.953Z,13.30
2023-05-14T23:10:25.727Z,13.40
2023-05-14T23:12:54.356Z,13.30
2023-05-14T23:15:20.987Z,13.30
2023-05-14T23:17:47.758Z,13.20
2023-05-14T23:20:14.876Z,13.00
2023-05-14T23:22:41.571Z,12.90
2023-05-14T23:25:08.785Z,12.80
2023-05-14T23:27:35.709Z,12.70
2023-05-14T23:30:03.657Z,12.70
2023-05-14T23:32:30.443Z,12.80
2023-05-14T23:35:00.341Z,12.80
2023-05-14T23:37:27.174Z,12.80
2023-05-14T23:39:53.939Z,12.80
2023-05-14T23:42:20.660Z,12.90
2023-05-14T23:44:47.446Z,12.90
2023-05-14T23:47:14.421Z,12.90
2023-05-14T23:49:41.128Z,12.90
2023-05-14T23:52:07.848Z,12.80
2023-05-14T23:54:34.783Z,12.80
2023-05-14T23:57:04.821Z,12.80
2023-05-14T23:59:31.756Z,12.70
